createdAt,value
2023-05-22T00:01:11.942Z,12.21
2023-05-22T00:05:15.206Z,12.39
2023-05-22T00:09:16.847Z,11.95
2023-05-22T00:13:18.459Z,11.91
2023-05-22T00:17:20.089Z,11.87
2023-05-22T00:21:23.822Z,12.06
2023-05-22T00:25:25.341Z,12.24
2023-05-22T00:29:26.920Z,12.27
2023-05-22T00:33:28.480Z,12.24
2023-05-22T00:37:31.359Z,12.30
2023-05-22T00:41:33.113Z,12.31
2023-05-22T00:45:34.633Z,12.35
2023-05-22T00:49:36.482Z,12.30
2023-05-22T00:53:39.448Z,12.22
2023-05-22T00:57:41.529Z,12.09
2023-05-22T01:01:43.393Z,11.94
2023-05-22T01:05:45.012Z,11.79
2023-05-22T01:09:47.906Z,11.80
2023-05-22T01:14:00.354Z,11.75
2023-05-22T01:18:11.527Z,11.61
2023-05-22T01:22:34.524Z,11.68
2023-05-22T01:27:07.095Z,11.60
2023-05-22T01:31:12.050Z,11.50
2023-05-22T01:35:16.835Z,11.57
2023-05-22T01:39:19.067Z,11.83
2023-05-22T01:43:20.803Z,11.83
2023-05-22T01:47:23.737Z,11.98
2023-05-22T01:51:39.390Z,12.03
2023-05-22T01:55:48.833Z,12.26
2023-05-22T01:59:55.842Z,12.39
2023-05-22T02:03:59.580Z,12.13
2023-05-22T02:08:02.219Z,11.89
2023-05-22T02:12:04.626Z,12.04
2023-05-22T02:16:07.644Z,11.97
2023-05-22T02:20:13.515Z,11.75
2023-05-22T02:24:15.266Z,11.81
2023-05-22T02:28:16.797Z,11.81
2023-05-22T02:32:18.332Z,11.82
2023-05-22T02:36:21.213Z,11.77
2023-05-22T02:40:22.833Z,11.67
2023-05-22T02:44:24.393Z,11.62
2023-05-22T02:48:25.948Z,11.51
2023-05-22T02:52:28.829Z,11.57
2023-05-22T02:56:30.356Z,11.57
2023-05-22T03:00:31.975Z,11.62
2023-05-22T03:04:33.519Z,11.71
2023-05-22T03:08:36.626Z,11.59
2023-05-22T03:12:38.304Z,11.44
2023-05-22T03:16:39.913Z,11.30
2023-05-22T03:20:41.636Z,11.31
2023-05-22T03:24:44.634Z,11.27
2023-05-22T03:28:46.229Z,11.16
2023-05-22T03:32:47.838Z,11.12
2023-05-22T03:36:49.387Z,11.11
2023-05-22T03:40:52.243Z,11.10
2023-05-22T03:44:53.772Z,11.26
2023-05-22T03:48:55.351Z,11.32
2023-05-22T03:52:56.889Z,11.53
2023-05-22T03:56:59.787Z,11.71
2023-05-22T04:01:01.432Z,11.69
2023-05-22T04:05:03.184Z,12.00
2023-05-22T04:09:04.735Z,12.18
2023-05-22T04:13:07.620Z,12.33
2023-05-22T04:17:09.147Z,12.44
2023-05-22T04:21:10.676Z,12.45
2023-05-22T04:25:12.219Z,12.59
2023-05-22T04:29:15.460Z,12.76
2023-05-22T04:33:16.986Z,13.01
2023-05-22T04:37:18.872Z,13.20
2023-05-22T04:41:22.365Z,13.37
2023-05-22T04:45:25.594Z,13.56
2023-05-22T04:49:27.280Z,13.78
2023-05-22T04:53:28.890Z,13.85
2023-05-22T04:57:30.442Z,13.94
2023-05-22T05:01:33.715Z,14.02
2023-05-22T05:05:35.318Z,14.01
2023-05-22T05:09:36.857Z,14.01
2023-05-22T05:13:38.378Z,14.08
2023-05-22T05:17:41.309Z,14.27
2023-05-22T05:21:42.884Z,14.39
2023-05-22T05:25:44.416Z,14.49
2023-05-22T05:29:45.941Z,14.53
2023-05-22T05:33:49.671Z,14.67
2023-05-22T05:37:51.199Z,14.82
2023-05-22T05:41:52.747Z,14.98
2023-05-22T05:45:54.505Z,15.26
2023-05-22T05:49:57.429Z,15.30
2023-05-22T05:53:58.968Z,15.46
2023-05-22T05:58:00.556Z,15.64
2023-05-22T06:02:02.335Z,16.03
2023-05-22T06:06:05.647Z,16.19
2023-05-22T06:10:09.467Z,16.42
2023-05-22T06:14:11.015Z,16.80
2023-05-22T06:18:13.046Z,16.94
2023-05-22T06:22:16.082Z,17.14
2023-05-22T06:26:17.772Z,17.20
2023-05-22T06:30:25.429Z,17.44
2023-05-22T06:34:33.840Z,17.58
2023-05-22T06:38:36.796Z,17.78
2023-05-22T06:42:38.341Z,18.19
2023-05-22T06:46:39.970Z,18.55
2023-05-22T06:50:41.609Z,19.03
2023-05-22T06:54:44.535Z,19.11
2023-05-22T06:58:46.079Z,19.35
2023-05-22T07:02:47.663Z,19.72
2023-05-22T07:06:49.269Z,20.08
2023-05-22T07:10:52.165Z,20.24
2023-05-22T07:14:53.754Z,20.35
2023-05-22T07:18:55.398Z,20.56
2023-05-22T07:22:56.930Z,20.49
2023-05-22T07:26:59.808Z,20.38
2023-05-22T07:31:01.462Z,20.56
2023-05-22T07:35:03.228Z,20.76
2023-05-22T07:39:04.765Z,21.01
2023-05-22T07:43:07.707Z,21.17
2023-05-22T07:47:09.243Z,21.29
2023-05-22T07:51:10.792Z,21.48
2023-05-22T07:55:12.351Z,21.63
2023-05-22T07:59:15.914Z,21.77
2023-05-22T08:03:18.002Z,22.11
2023-05-22T08:07:19.689Z,21.91
2023-05-22T08:11:21.301Z,22.04
2023-05-22T08:15:24.225Z,22.17
2023-05-22T08:19:25.892Z,22.16
2023-05-22T08:23:27.527Z,22.23
2023-05-22T08:27:29.655Z,21.97
2023-05-22T08:31:32.731Z,21.98
2023-05-22T08:35:34.293Z,21.90
2023-05-22T08:39:35.868Z,22.20
2023-05-22T08:43:37.450Z,22.19
2023-05-22T08:47:42.605Z,22.56
2023-05-22T08:51:49.233Z,22.62
2023-05-22T08:55:53.161Z,22.57
2023-05-22T08:59:54.723Z,22.90
2023-05-22T09:04:00.470Z,23.41
2023-05-22T09:08:15.892Z,23.21
2023-05-22T09:12:21.055Z,23.26
2023-05-22T09:16:22.604Z,23.54
2023-05-22T09:20:25.859Z,23.22
2023-05-22T09:24:27.465Z,23.31
2023-05-22T09:28:32.789Z,23.59
2023-05-22T09:32:34.400Z,23.12
2023-05-22T09:36:37.403Z,23.22
2023-05-22T09:40:40.310Z,23.30
2023-05-22T09:44:42.052Z,22.76
2023-05-22T09:48:43.591Z,22.55
2023-05-22T09:52:48.505Z,22.47
2023-05-22T09:56:51.905Z,22.06
2023-05-22T10:00:55.178Z,21.97
2023-05-22T10:04:57.655Z,21.94
2023-05-22T10:09:03.559Z,21.83
2023-05-22T10:13:05.661Z,21.75
2023-05-22T10:17:07.310Z,21.77
2023-05-22T10:21:08.935Z,22.15
2023-05-22T10:25:11.882Z,22.38
2023-05-22T10:29:18.921Z,22.78
2023-05-22T10:33:23.672Z,23.21
2023-05-22T10:37:37.397Z,23.69
2023-05-22T10:41:40.352Z,23.42
2023-05-22T10:45:45.531Z,23.79
2023-05-22T10:49:47.310Z,23.77
2023-05-22T10:53:51.710Z,24.00
2023-05-22T10:57:56.045Z,24.18
2023-05-22T11:02:00.880Z,24.25
2023-05-22T11:06:03.606Z,24.68
2023-05-22T11:10:05.521Z,24.29
2023-05-22T11:14:08.453Z,23.55
2023-05-22T11:18:10.204Z,23.57
2023-05-22T11:22:11.952Z,23.73
2023-05-22T11:26:20.949Z,23.69
2023-05-22T11:30:27.774Z,23.74
2023-05-22T11:34:29.355Z,23.74
2023-05-22T11:38:31.555Z,23.98
2023-05-22T11:42:33.558Z,24.22
2023-05-22T11:46:36.565Z,23.81
2023-05-22T11:50:42.521Z,24.44
2023-05-22T11:54:45.330Z,24.62
2023-05-22T11:58:48.172Z,24.25
2023-05-22T12:02:51.163Z,24.78
2023-05-22T12:06:53.344Z,24.69
2023-05-22T12:10:54.932Z,24.84
2023-05-22T12:14:57.555Z,24.71
2023-05-22T12:19:04.062Z,25.73
2023-05-22T12:23:12.084Z,25.91
2023-05-22T12:27:15.018Z,25.70
2023-05-22T12:31:21.126Z,25.83
2023-05-22T12:35:24.004Z,25.39
2023-05-22T12:39:25.548Z,25.87
2023-05-22T12:43:27.087Z,26.57
2023-05-22T12:47:28.747Z,27.75
2023-05-22T12:51:32.675Z,27.88
2023-05-22T12:55:34.241Z,28.25
2023-05-22T12:59:35.806Z,29.61
2023-05-22T13:03:37.370Z,28.48
2023-05-22T13:07:40.613Z,27.91
2023-05-22T13:11:42.357Z,27.75
2023-05-22T13:15:44.000Z,29.76
2023-05-22T13:19:45.562Z,27.74
2023-05-22T13:23:48.466Z,27.20
2023-05-22T13:27:50.026Z,28.61
2023-05-22T13:31:51.599Z,28.26
2023-05-22T13:35:53.161Z,28.35
2023-05-22T13:39:56.107Z,27.35
2023-05-22T13:43:57.687Z,27.45
2023-05-22T13:47:59.336Z,26.86
2023-05-22T13:52:00.897Z,27.61
2023-05-22T13:56:03.884Z,29.25
2023-05-22T14:00:06.595Z,28.49
2023-05-22T14:04:08.164Z,27.86
2023-05-22T14:08:09.757Z,27.66
2023-05-22T14:12:12.705Z,28.45
2023-05-22T14:16:14.418Z,28.29
2023-05-22T14:20:16.278Z,27.92
2023-05-22T14:24:18.386Z,28.39
2023-05-22T14:28:21.387Z,27.67
2023-05-22T14:32:22.997Z,27.05
2023-05-22T14:36:24.557Z,26.51
2023-05-22T14:40:26.147Z,26.23
2023-05-22T14:44:29.050Z,26.41
2023-05-22T14:48:30.906Z,26.91
2023-05-22T14:52:32.441Z,28.03
2023-05-22T14:56:34.029Z,27.38
2023-05-22T15:00:37.050Z,26.79
2023-05-22T15:04:38.772Z,26.82
2023-05-22T15:08:40.398Z,26.69
2023-05-22T15:12:41.934Z,26.17
2023-05-22T15:16:45.333Z,26.24
2023-05-22T15:20:47.151Z,27.19
2023-05-22T15:24:48.759Z,26.42
2023-05-22T15:28:50.473Z,25.87
2023-05-22T15:32:53.581Z,25.13
2023-05-22T15:36:55.216Z,24.91
2023-05-22T15:40:56.804Z,24.71
2023-05-22T15:44:59.535Z,24.32
2023-05-22T15:49:02.660Z,24.56
2023-05-22T15:53:04.249Z,23.68
2023-05-22T15:57:05.807Z,23.44
2023-05-22T16:01:07.372Z,23.73
2023-05-22T16:05:10.520Z,23.71
2023-05-22T16:09:12.392Z,23.68
2023-05-22T16:13:14.032Z,23.89
2023-05-22T16:17:15.666Z,24.37
2023-05-22T16:21:18.651Z,24.54
2023-05-22T16:25:20.219Z,24.91
2023-05-22T16:29:21.763Z,24.31
2023-05-22T16:33:23.309Z,24.44
2023-05-22T16:37:26.230Z,24.22
2023-05-22T16:41:27.813Z,23.64
2023-05-22T16:45:29.427Z,22.92
2023-05-22T16:49:30.974Z,22.51
2023-05-22T16:53:34.666Z,22.20
2023-05-22T16:57:37.142Z,22.02
2023-05-22T17:01:38.738Z,22.00
2023-05-22T17:05:40.719Z,21.73
2023-05-22T17:09:43.908Z,21.57
2023-05-22T17:13:45.455Z,21.29
2023-05-22T17:17:47.071Z,21.05
2023-05-22T17:21:48.756Z,21.07
2023-05-22T17:25:51.774Z,20.88
2023-05-22T17:29:53.330Z,20.66
2023-05-22T17:33:54.867Z,20.66
2023-05-22T17:37:56.453Z,20.54
2023-05-22T17:42:00.533Z,20.63
2023-05-22T17:46:02.243Z,20.53
2023-05-22T17:50:04.019Z,20.43
2023-05-22T17:54:05.801Z,20.35
2023-05-22T17:58:08.671Z,20.26
2023-05-22T18:02:10.187Z,20.03
2023-05-22T18:06:11.874Z,19.93
2023-05-22T18:10:13.461Z,19.84
2023-05-22T18:14:16.360Z,19.64
2023-05-22T18:18:17.952Z,19.42
2023-05-22T18:22:19.523Z,19.21
2023-05-22T18:26:21.138Z,18.97
2023-05-22T18:30:24.169Z,18.92
2023-05-22T18:34:25.715Z,18.80
2023-05-22T18:38:27.271Z,19.02
2023-05-22T18:42:28.845Z,19.02
2023-05-22T18:46:31.758Z,18.59
2023-05-22T18:50:33.323Z,18.34
2023-05-22T18:54:34.880Z,18.18
2023-05-22T18:58:36.455Z,17.92
2023-05-22T19:02:39.394Z,17.85
2023-05-22T19:06:40.971Z,17.67
2023-05-22T19:10:42.823Z,17.53
2023-05-22T19:14:44.620Z,17.21
2023-05-22T19:18:47.649Z,16.96
2023-05-22T19:22:49.220Z,16.81
2023-05-22T19:26:50.757Z,16.63
2023-05-22T19:30:52.571Z,16.62
2023-05-22T19:34:55.534Z,16.51
2023-05-22T19:38:57.152Z,16.40
2023-05-22T19:42:58.690Z,16.39
2023-05-22T19:47:00.248Z,16.21
2023-05-22T19:51:03.226Z,16.06
2023-05-22T19:55:05.641Z,15.94
2023-05-22T19:59:07.169Z,15.82
2023-05-22T20:03:09.095Z,15.77
2023-05-22T20:07:12.260Z,15.64
2023-05-22T20:11:13.804Z,15.55
2023-05-22T20:15:15.592Z,15.69
2023-05-22T20:19:17.233Z,15.63
2023-05-22T20:23:20.165Z,15.50
2023-05-22T20:27:21.705Z,15.41
2023-05-22T20:31:23.272Z,15.27
2023-05-22T20:35:24.815Z,15.21
2023-05-22T20:39:27.902Z,15.15
2023-05-22T20:43:29.513Z,15.08
2023-05-22T20:47:31.264Z,15.24
2023-05-22T20:51:33.151Z,15.15
2023-05-22T20:55:36.103Z,15.07
2023-05-22T20:59:37.893Z,15.34
2023-05-22T21:03:39.503Z,15.27
2023-05-22T21:07:41.057Z,15.28
2023-05-22T21:11:43.946Z,15.20
2023-05-22T21:15:45.586Z,15.09
2023-05-22T21:19:47.143Z,15.02
2023-05-22T21:23:48.784Z,14.95
2023-05-22T21:27:51.673Z,14.94
2023-05-22T21:31:53.320Z,14.83
2023-05-22T21:35:54.896Z,14.81
2023-05-22T21:39:56.416Z,14.91
2023-05-22T21:43:59.861Z,14.89
2023-05-22T21:48:01.461Z,14.86
2023-05-22T21:52:03.065Z,14.77
2023-05-22T21:56:04.735Z,14.57
2023-05-22T22:00:09.058Z,14.56
2023-05-22T22:04:10.681Z,14.76
2023-05-22T22:08:12.271Z,14.72
2023-05-22T22:12:13.798Z,14.65
2023-05-22T22:16:16.737Z,14.67
2023-05-22T22:20:24.776Z,14.69
2023-05-22T22:24:32.007Z,14.56
2023-05-22T22:28:33.723Z,14.53
2023-05-22T22:32:36.724Z,14.61
2023-05-22T22:36:38.364Z,14.83
2023-05-22T22:40:40.378Z,14.85
2023-05-22T22:44:42.916Z,14.84
2023-05-22T22:48:45.809Z,14.75
2023-05-22T22:52:47.332Z,14.63
2023-05-22T22:56:49.029Z,14.27
2023-05-22T23:00:50.628Z,14.01
2023-05-22T23:04:53.621Z,14.07
2023-05-22T23:09:02.039Z,14.01
2023-05-22T23:13:03.666Z,14.48
2023-05-22T23:17:05.317Z,14.76
2023-05-22T23:21:08.197Z,14.86
2023-05-22T23:25:10.200Z,15.00
2023-05-22T23:29:11.744Z,15.15
2023-05-22T23:33:13.282Z,15.72
2023-05-22T23:37:16.208Z,16.11
2023-05-22T23:41:18.138Z,16.38
2023-05-22T23:45:19.881Z,16.43
2023-05-22T23:49:21.528Z,16.48
2023-05-22T23:53:24.422Z,16.43
2023-05-22T23:57:25.981Z,16.35
